MDT,Max TemperatureF,Mean TemperatureF,Min TemperatureF,Max Dew PointF,MeanDew PointF,Min DewpointF,Max Humidity, Mean Humidity, Min Humidity, Max Sea Level PressureIn, Mean Sea Level PressureIn, Min Sea Level PressureIn, Max VisibilityMiles, Mean VisibilityMiles, Min VisibilityMiles, Max Wind SpeedMPH, Mean Wind SpeedMPH, Max Gust SpeedMPH,PrecipitationIn, CloudCover, Events, WindDirDegrees
2012-10-1,81,66,53,29,27,26,38,24,14,30.24,30.08,29.99,10,10,10,12,6,,0.00,0,,355
2012-10-2,82,64,46,30,26,21,50,28,12,30.19,29.98,29.86,10,10,10,14,5,20,0.00,0,,319
2012-10-3,81,63,46,26,20,8,41,22,10,30.06,29.91,29.84,10,10,10,26,8,34,0.00,0,,346
2012-10-4,75,60,44,20,13,6,26,17,9,30.03,29.94,29.88,10,10,10,18,8,26,0.00,0,,341
2012-10-5,70,60,48,17,9,5,22,14,8,30.05,29.94,29.84,10,10,10,22,12,30,0.00,0,,306
2012-10-6,64,54,39,11,5,0,26,16,8,30.13,30.03,29.95,10,10,10,14,7,20,0.00,0,,28
2012-10-7,64,50,36,11,5,-1,34,19,9,30.15,30.09,30.03,10,10,10,14,7,,0.00,0,,29
2012-10-8,66,48,33,10,7,4,32,20,10,30.16,30.05,29.97,10,10,10,12,6,,0.00,0,,40
2012-10-9,73,57,41,21,16,9,35,22,12,30.07,29.99,29.91,10,10,10,12,6,18,0.00,0,,25
2012-10-10,73,59,45,29,23,21,39,26,15,30.06,29.97,29.88,10,10,10,9,7,,0.00,1,,68
2012-10-11,72,58,46,31,28,26,48,35,21,30.07,29.96,29.90,10,10,10,10,5,,0.00,1,,72
2012-10-12,54,46,41,48,40,27,93,73,38,30.06,29.98,29.90,10,9,2,16,5,26,0.25,7,Rain-Thunderstorm,78
2012-10-13,63,50,39,40,38,36,93,66,44,30.30,30.15,30.07,10,10,9,20,6,28,0.02,2,Rain,329
2012-10-14,64,50,37,37,34,31,76,54,30,30.38,30.29,30.23,10,10,10,12,7,,0.00,0,,22
2012-10-15,64,51,39,37,35,33,79,57,36,30.24,30.14,30.05,10,10,10,9,5,,0.00,0,,48
2012-10-16,69,54,39,41,35,25,77,50,31,30.10,29.91,29.73,10,10,10,16,6,25,0.00,2,,77
2012-10-17,62,52,42,16,6,-4,34,18,7,30.16,30.03,29.88,10,10,10,21,12,38,0.00,0,,312
2012-10-18,70,56,42,16,8,-1,34,18,9,30.25,30.17,30.09,10,10,10,18,9,24,0.00,0,,343
2012-10-19,66,50,35,20,18,16,48,30,15,30.19,30.08,29.96,10,10,10,10,4,,0.00,0,,44
2012-10-20,68,54,39,20,19,18,43,28,15,29.97,29.84,29.72,10,10,10,12,6,,0.00,0,,69
2012-10-21,70,54,39,44,26,19,71,36,18,29.91,29.77,29.70,10,10,8,13,5,,0.03,2,Rain,81
2012-10-22,64,54,44,40,37,30,80,54,32,29.81,29.73,29.65,10,10,10,18,7,25,0.01,5,Rain-Thunderstorm,135
2012-10-23,62,50,39,30,26,21,63,36,21,29.78,29.72,29.67,10,10,10,13,7,20,0.00,3,,195
2012-10-24,51,40,28,26,21,15,59,42,34,30.12,29.86,29.72,10,10,10,20,8,30,0.00,3,,315
2012-10-25,46,32,21,27,17,14,72,51,32,30.39,30.25,30.13,10,10,5,21,8,30,0.00,3,,327
2012-10-26,44,32,19,12,7,1,62,37,18,30.53,30.42,30.31,10,10,10,9,5,,0.00,0,,87
2012-10-27,51,37,24,11,8,5,48,32,18,30.35,30.27,30.20,10,10,10,10,6,,0.00,0,,21
2012-10-28,59,44,30,19,15,11,51,34,19,30.31,30.23,30.16,10,10,10,9,5,,0.00,0,,41
2012-10-29,63,50,36,21,19,17,52,34,18,30.28,30.23,30.17,10,10,10,9,5,,0.00,0,,44
2012-10-30,66,50,35,23,21,19,55,36,18,30.29,30.21,30.13,10,10,10,10,5,,0.00,0,,51
2012-10-31,66,51,36,21,20,19,50,33,17,30.26,30.16,30.08,10,10,10,9,5,,0.00,0,,86